TNCMTLPC

Guest
Details From TNCM - St Maarten - Princess Juliana Intl
To TLPC - Castries/George F L Charles
Flight Number -
Tags generated
Created
Modified
Stats Distance 279 nm / 516 km
Max Altitude 35,000 ft / 10,668 m
Waypoints 5
Social Downloads 1
Likes 0
Share VATSIM

Download

Looking for another format? Having issues loading an existing format? Contact us
Advertisement - Login to hide

Notes

Basic altitude profile: - Ascent Rate: 2500ft/min - Ascent Speed: 250kts - Cruise Altitude: 21000ft - Cruise Speed: 420kts - Descent Rate: 1500ft/min - Descent Speed: 250kts Options: - Use NATs: yes - Use PACOTS: yes - Use low airways: yes - Use high airways: yes

Route

TNCM BIMBO A517 PPR A312 DOM TLPC

ID Type Via Altitude (ft/m) Position (lat/lon) Dist (leg/tot) Name
O TNCM APT - 0 / 0 18.04089 / -63.10897 - / 0 nm St Maarten - Princess Juliana Intl
BIMBO FIX - 35,000 / 10,668 16.62667 / -61.96028 107 / 107 nm
PPR DME A517 (AWY-LO) 29,700 / 9,053 16.26519 / -61.54014 32 / 139 nm POINTE A PITRE VOR-DME
DOM NDB A312 (AWY-LO) 20,000 / 6,096 15.55094 / -61.29564 45 / 185 nm MELVILLE HALL NDB
O TLPC APT - 0 / 0 14.01970 / -60.99339 93 / 278 nm Castries/George F L Charles

Altitude Profile

Advertisement - Login to hide

Weather


0- 5 10 15 20 25 30 35+ Temperature / °C

Clouds and Precipitation
Forecast for 2018-10-22 12:00 UTC. Updated 2 hours ago

Ground ~20,000 ft ~40,000 ft Winds

TNCM

Details ICAO TNCM (SXM)
Name Princess Juliana Int'l
Region Caribbean Netherlands, Aruba, Curaçao, Sint Maarten
Timezone Unknown
Stats Elevation 12 ft / 4 m (AMSL)
Location 18.040900° -63.108900°
Runways 1
Magnetic Variation 14.348° W

METAR

TNCM 221100Z 08006KT 050V120 9999 VCSH FEW017TCU 27/23 Q1012 A2990 NOSIG RMK VCSH NE/ TCU E

Decode

TAF

TAF TNCM 220543Z 2206/2306 08009KT P6SM VCSH SCT018 SCT040 TEMPO 2206/2208 -SHRA BKN018 FM221400 11012KT P6SM SCT018 SCT040

Decode

Departure Runways

ID Width Length Bearing (true/mag) Surface Threshold Overrun Markings Lighting
10 148 ft / 45 m 7,553 ft / 2,302 m 81.44° / 95.79° ASPHALT 331 ft / 101 m 164 ft / 50 m PREC-APP EDGE THRESHOLD REIL-OMNI
28 148 ft / 45 m 7,553 ft / 2,302 m 261.45° / 275.79° ASPHALT 0 ft / 0 m 200 ft / 61 m APP EDGE THRESHOLD

TLPC

Details ICAO TLPC (SLU)
Name Castries/George F L Charles
Region Saint Lucia
Timezone America/St_Lucia (UTC-4.0)
Stats Elevation 22 ft / 7 m (AMSL)
Location 14.019700° -60.993400°
Runways 1
Magnetic Variation 15.101° W

METAR

TLPC 221100Z 13003KT 9999 FEW017 25/24 Q1011 NOSIG

Decode

TAF

TAF TAF TLPC 220500Z 2206/2306 10008KT 9999 SCT023 TEMPO 2206/2300 5000 SHRA FEW010CB BKN018 BKN038

Decode

Destination Runways

ID Width Length Bearing (true/mag) Surface Threshold Overrun Markings Lighting
09 148 ft / 45 m 5,731 ft / 1,747 m 75.34° / 90.44° ASPHALT 400 ft / 122 m 0 ft / 0 m APP EDGE THRESHOLD
27 148 ft / 45 m 5,731 ft / 1,747 m 255.34° / 270.44° ASPHALT 925 ft / 282 m 0 ft / 0 m APP EDGE THRESHOLD

Popular Alternatives